sensor_id;sensor_type;location;lat;lon;timestamp;temperature;humidity
3069;DHT22;1545;51.728;8.796;2023-07-16T00:01:56;21.40;85.60
3069;DHT22;1545;51.728;8.796;2023-07-16T00:04:21;21.40;85.00
3069;DHT22;1545;51.728;8.796;2023-07-16T00:06:47;21.40;84.50
3069;DHT22;1545;51.728;8.796;2023-07-16T00:09:12;21.30;82.60
3069;DHT22;1545;51.728;8.796;2023-07-16T00:11:38;21.30;81.70
3069;DHT22;1545;51.728;8.796;2023-07-16T00:14:04;21.30;79.10
3069;DHT22;1545;51.728;8.796;2023-07-16T00:16:29;21.20;78.60
3069;DHT22;1545;51.728;8.796;2023-07-16T00:18:54;21.20;77.70
3069;DHT22;1545;51.728;8.796;2023-07-16T00:21:20;21.10;76.30
3069;DHT22;1545;51.728;8.796;2023-07-16T00:23:46;21.10;75.70
3069;DHT22;1545;51.728;8.796;2023-07-16T00:26:12;21.00;76.50
3069;DHT22;1545;51.728;8.796;2023-07-16T00:28:38;21.00;76.60
3069;DHT22;1545;51.728;8.796;2023-07-16T00:31:04;21.00;76.40
3069;DHT22;1545;51.728;8.796;2023-07-16T00:33:29;21.00;76.70
3069;DHT22;1545;51.728;8.796;2023-07-16T00:35:55;20.90;76.90
3069;DHT22;1545;51.728;8.796;2023-07-16T00:38:21;21.00;76.90
3069;DHT22;1545;51.728;8.796;2023-07-16T00:40:46;20.90;76.90
3069;DHT22;1545;51.728;8.796;2023-07-16T00:43:12;20.90;77.00
3069;DHT22;1545;51.728;8.796;2023-07-16T00:45:39;20.90;77.00
3069;DHT22;1545;51.728;8.796;2023-07-16T00:48:06;20.90;77.10
3069;DHT22;1545;51.728;8.796;2023-07-16T00:50:35;20.80;77.20
3069;DHT22;1545;51.728;8.796;2023-07-16T00:53:08;20.80;77.40
3069;DHT22;1545;51.728;8.796;2023-07-16T00:55:35;20.70;77.50
3069;DHT22;1545;51.728;8.796;2023-07-16T00:58:03;20.70;77.60
3069;DHT22;1545;51.728;8.796;2023-07-16T01:00:33;20.70;77.70
3069;DHT22;1545;51.728;8.796;2023-07-16T01:03:01;20.60;77.90
3069;DHT22;1545;51.728;8.796;2023-07-16T01:05:34;20.60;78.10
3069;DHT22;1545;51.728;8.796;2023-07-16T01:08:04;20.50;78.30
3069;DHT22;1545;51.728;8.796;2023-07-16T01:10:30;20.50;78.40
3069;DHT22;1545;51.728;8.796;2023-07-16T01:12:57;20.40;78.50
3069;DHT22;1545;51.728;8.796;2023-07-16T01:15:24;20.40;78.70
3069;DHT22;1545;51.728;8.796;2023-07-16T01:17:49;20.30;78.80
3069;DHT22;1545;51.728;8.796;2023-07-16T01:20:15;20.20;79.00
3069;DHT22;1545;51.728;8.796;2023-07-16T01:25:45;20.10;79.10
3069;DHT22;1545;51.728;8.796;2023-07-16T01:28:38;20.10;79.60
3069;DHT22;1545;51.728;8.796;2023-07-16T01:31:08;20.10;79.60
3069;DHT22;1545;51.728;8.796;2023-07-16T01:33:35;20.10;79.70
3069;DHT22;1545;51.728;8.796;2023-07-16T01:36:02;20.20;79.80
3069;DHT22;1545;51.728;8.796;2023-07-16T01:38:28;20.20;80.30
3069;DHT22;1545;51.728;8.796;2023-07-16T01:40:54;20.20;79.30
3069;DHT22;1545;51.728;8.796;2023-07-16T01:43:19;20.30;78.90
3069;DHT22;1545;51.728;8.796;2023-07-16T01:45:45;20.30;79.00
3069;DHT22;1545;51.728;8.796;2023-07-16T01:48:33;20.30;79.00
3069;DHT22;1545;51.728;8.796;2023-07-16T01:51:00;20.30;78.90
3069;DHT22;1545;51.728;8.796;2023-07-16T01:53:25;20.30;78.90
3069;DHT22;1545;51.728;8.796;2023-07-16T01:55:51;20.30;78.90
3069;DHT22;1545;51.728;8.796;2023-07-16T01:58:17;20.30;78.90
3069;DHT22;1545;51.728;8.796;2023-07-16T02:00:42;20.30;78.80
3069;DHT22;1545;51.728;8.796;2023-07-16T02:03:08;20.20;78.90
3069;DHT22;1545;51.728;8.796;2023-07-16T02:05:34;20.30;78.80
3069;DHT22;1545;51.728;8.796;2023-07-16T02:07:59;20.20;78.90
3069;DHT22;1545;51.728;8.796;2023-07-16T02:10:25;20.20;78.90
3069;DHT22;1545;51.728;8.796;2023-07-16T02:12:50;20.20;79.00
3069;DHT22;1545;51.728;8.796;2023-07-16T02:15:16;20.20;79.10
3069;DHT22;1545;51.728;8.796;2023-07-16T02:17:43;20.20;79.00
3069;DHT22;1545;51.728;8.796;2023-07-16T02:20:09;20.20;79.00
3069;DHT22;1545;51.728;8.796;2023-07-16T02:22:36;20.20;79.10
3069;DHT22;1545;51.728;8.796;2023-07-16T02:25:02;20.10;79.20
3069;DHT22;1545;51.728;8.796;2023-07-16T02:27:27;20.20;79.60
3069;DHT22;1545;51.728;8.796;2023-07-16T02:29:53;20.20;79.40
3069;DHT22;1545;51.728;8.796;2023-07-16T02:32:19;20.10;79.60
3069;DHT22;1545;51.728;8.796;2023-07-16T02:34:44;20.10;79.60
3069;DHT22;1545;51.728;8.796;2023-07-16T02:37:10;20.00;79.60
3069;DHT22;1545;51.728;8.796;2023-07-16T02:39:35;20.00;79.80
3069;DHT22;1545;51.728;8.796;2023-07-16T02:42:01;19.90;80.10
3069;DHT22;1545;51.728;8.796;2023-07-16T02:44:26;19.80;80.50
3069;DHT22;1545;51.728;8.796;2023-07-16T02:46:52;19.80;80.70
3069;DHT22;1545;51.728;8.796;2023-07-16T02:49:17;19.70;81.00
3069;DHT22;1545;51.728;8.796;2023-07-16T02:51:43;19.70;81.40
3069;DHT22;1545;51.728;8.796;2023-07-16T02:54:08;19.60;81.70
3069;DHT22;1545;51.728;8.796;2023-07-16T02:56:34;19.50;82.10
3069;DHT22;1545;51.728;8.796;2023-07-16T02:58:59;19.50;82.50
3069;DHT22;1545;51.728;8.796;2023-07-16T03:01:25;19.50;82.70
3069;DHT22;1545;51.728;8.796;2023-07-16T03:03:51;19.50;82.80
3069;DHT22;1545;51.728;8.796;2023-07-16T03:06:16;19.60;82.80
3069;DHT22;1545;51.728;8.796;2023-07-16T03:08:42;19.60;82.80
3069;DHT22;1545;51.728;8.796;2023-07-16T03:11:08;19.50;83.10
3069;DHT22;1545;51.728;8.796;2023-07-16T03:13:33;19.50;83.20
3069;DHT22;1545;51.728;8.796;2023-07-16T03:15:59;19.30;83.50
3069;DHT22;1545;51.728;8.796;2023-07-16T03:18:32;19.20;83.80
3069;DHT22;1545;51.728;8.796;2023-07-16T03:20:58;19.10;84.20
3069;DHT22;1545;51.728;8.796;2023-07-16T03:23:24;18.90;84.80
3069;DHT22;1545;51.728;8.796;2023-07-16T03:25:51;18.80;85.30
3069;DHT22;1545;51.728;8.796;2023-07-16T03:28:16;18.70;86.00
3069;DHT22;1545;51.728;8.796;2023-07-16T03:30:47;18.60;86.50
3069;DHT22;1545;51.728;8.796;2023-07-16T03:33:13;18.50;87.10
3069;DHT22;1545;51.728;8.796;2023-07-16T03:35:39;18.40;87.30
3069;DHT22;1545;51.728;8.796;2023-07-16T03:38:04;18.40;87.50
3069;DHT22;1545;51.728;8.796;2023-07-16T03:40:30;18.30;87.80
3069;DHT22;1545;51.728;8.796;2023-07-16T03:42:55;18.30;88.00
3069;DHT22;1545;51.728;8.796;2023-07-16T03:45:21;18.20;88.20
3069;DHT22;1545;51.728;8.796;2023-07-16T03:47:47;18.20;88.00
3069;DHT22;1545;51.728;8.796;2023-07-16T03:50:12;18.10;88.50
3069;DHT22;1545;51.728;8.796;2023-07-16T03:52:38;18.20;88.60
3069;DHT22;1545;51.728;8.796;2023-07-16T03:55:03;18.20;88.50
3069;DHT22;1545;51.728;8.796;2023-07-16T03:57:29;18.20;88.50
3069;DHT22;1545;51.728;8.796;2023-07-16T03:59:55;18.20;88.70
3069;DHT22;1545;51.728;8.796;2023-07-16T04:02:20;18.40;88.30
3069;DHT22;1545;51.728;8.796;2023-07-16T04:04:46;18.50;87.80
3069;DHT22;1545;51.728;8.796;2023-07-16T04:07:12;18.50;87.10
3069;DHT22;1545;51.728;8.796;2023-07-16T04:09:38;18.50;86.90
3069;DHT22;1545;51.728;8.796;2023-07-16T04:12:04;18.60;86.50
3069;DHT22;1545;51.728;8.796;2023-07-16T04:14:30;18.70;86.00
3069;DHT22;1545;51.728;8.796;2023-07-16T04:16:56;18.70;85.80
3069;DHT22;1545;51.728;8.796;2023-07-16T04:19:21;18.70;85.30
3069;DHT22;1545;51.728;8.796;2023-07-16T04:21:47;18.80;84.90
3069;DHT22;1545;51.728;8.796;2023-07-16T04:24:12;18.80;84.90
3069;DHT22;1545;51.728;8.796;2023-07-16T04:26:38;18.90;84.30
3069;DHT22;1545;51.728;8.796;2023-07-16T04:29:03;19.00;83.90
3069;DHT22;1545;51.728;8.796;2023-07-16T04:31:29;19.20;83.00
3069;DHT22;1545;51.728;8.796;2023-07-16T04:33:54;19.40;82.30
3069;DHT22;1545;51.728;8.796;2023-07-16T04:36:20;19.60;81.60
3069;DHT22;1545;51.728;8.796;2023-07-16T04:38:45;19.80;81.20
3069;DHT22;1545;51.728;8.796;2023-07-16T04:41:11;20.20;79.90
3069;DHT22;1545;51.728;8.796;2023-07-16T04:43:38;20.60;78.10
3069;DHT22;1545;51.728;8.796;2023-07-16T04:46:03;21.00;77.40
3069;DHT22;1545;51.728;8.796;2023-07-16T04:48:29;21.20;76.80
3069;DHT22;1545;51.728;8.796;2023-07-16T04:50:54;23.30;74.40
3069;DHT22;1545;51.728;8.796;2023-07-16T04:53:20;25.40;69.20
3069;DHT22;1545;51.728;8.796;2023-07-16T04:55:46;27.00;63.50
3069;DHT22;1545;51.728;8.796;2023-07-16T04:58:12;28.10;60.40
3069;DHT22;1545;51.728;8.796;2023-07-16T05:00:38;29.20;57.50
3069;DHT22;1545;51.728;8.796;2023-07-16T05:03:03;30.10;54.70
3069;DHT22;1545;51.728;8.796;2023-07-16T05:05:29;30.50;53.90
3069;DHT22;1545;51.728;8.796;2023-07-16T05:07:54;30.70;52.60
3069;DHT22;1545;51.728;8.796;2023-07-16T05:10:20;31.20;52.20
3069;DHT22;1545;51.728;8.796;2023-07-16T05:12:46;31.30;51.60
3069;DHT22;1545;51.728;8.796;2023-07-16T05:15:11;31.80;50.80
3069;DHT22;1545;51.728;8.796;2023-07-16T05:17:37;32.00;50.00
3069;DHT22;1545;51.728;8.796;2023-07-16T05:20:03;32.00;49.70
3069;DHT22;1545;51.728;8.796;2023-07-16T05:22:29;31.50;50.30
3069;DHT22;1545;51.728;8.796;2023-07-16T05:24:55;31.30;50.90
3069;DHT22;1545;51.728;8.796;2023-07-16T05:27:20;31.30;50.60
3069;DHT22;1545;51.728;8.796;2023-07-16T05:29:46;31.60;50.10
3069;DHT22;1545;51.728;8.796;2023-07-16T05:32:13;31.20;50.40
3069;DHT22;1545;51.728;8.796;2023-07-16T05:34:38;30.90;50.40
3069;DHT22;1545;51.728;8.796;2023-07-16T05:37:04;30.00;51.60
3069;DHT22;1545;51.728;8.796;2023-07-16T05:39:30;29.50;52.50
3069;DHT22;1545;51.728;8.796;2023-07-16T05:41:55;29.50;52.50
3069;DHT22;1545;51.728;8.796;2023-07-16T05:44:21;29.10;52.40
3069;DHT22;1545;51.728;8.796;2023-07-16T05:46:46;28.20;53.80
3069;DHT22;1545;51.728;8.796;2023-07-16T05:49:12;28.30;53.70
3069;DHT22;1545;51.728;8.796;2023-07-16T05:51:38;28.70;52.60
3069;DHT22;1545;51.728;8.796;2023-07-16T05:54:03;29.10;52.60
3069;DHT22;1545;51.728;8.796;2023-07-16T05:56:29;29.70;51.10
3069;DHT22;1545;51.728;8.796;2023-07-16T05:58:54;29.10;51.80
3069;DHT22;1545;51.728;8.796;2023-07-16T06:01:20;29.10;51.70
3069;DHT22;1545;51.728;8.796;2023-07-16T06:03:45;28.80;51.40
3069;DHT22;1545;51.728;8.796;2023-07-16T06:06:11;28.30;52.00
3069;DHT22;1545;51.728;8.796;2023-07-16T06:08:36;28.20;52.70
3069;DHT22;1545;51.728;8.796;2023-07-16T06:11:02;28.40;52.30
3069;DHT22;1545;51.728;8.796;2023-07-16T06:13:29;28.90;52.00
3069;DHT22;1545;51.728;8.796;2023-07-16T06:15:54;29.50;50.60
3069;DHT22;1545;51.728;8.796;2023-07-16T06:18:20;29.60;50.10
3069;DHT22;1545;51.728;8.796;2023-07-16T06:20:46;28.60;51.10
3069;DHT22;1545;51.728;8.796;2023-07-16T06:23:12;28.70;51.40
3069;DHT22;1545;51.728;8.796;2023-07-16T06:25:38;28.80;51.10
3069;DHT22;1545;51.728;8.796;2023-07-16T06:28:06;27.90;51.90
3069;DHT22;1545;51.728;8.796;2023-07-16T06:30:31;26.50;54.80
3069;DHT22;1545;51.728;8.796;2023-07-16T06:32:58;25.50;57.30
3069;DHT22;1545;51.728;8.796;2023-07-16T06:35:24;25.20;58.30
3069;DHT22;1545;51.728;8.796;2023-07-16T06:37:49;24.60;59.60
3069;DHT22;1545;51.728;8.796;2023-07-16T06:40:15;24.00;60.80
3069;DHT22;1545;51.728;8.796;2023-07-16T06:42:40;23.70;62.10
3069;DHT22;1545;51.728;8.796;2023-07-16T06:45:07;23.30;62.20
3069;DHT22;1545;51.728;8.796;2023-07-16T06:47:32;23.70;62.20
3069;DHT22;1545;51.728;8.796;2023-07-16T06:49:58;23.70;62.00
3069;DHT22;1545;51.728;8.796;2023-07-16T06:52:24;23.80;62.30
3069;DHT22;1545;51.728;8.796;2023-07-16T06:54:56;23.70;62.60
3069;DHT22;1545;51.728;8.796;2023-07-16T06:57:22;23.40;63.00
3069;DHT22;1545;51.728;8.796;2023-07-16T06:59:48;23.00;63.30
3069;DHT22;1545;51.728;8.796;2023-07-16T07:02:15;23.00;63.10
3069;DHT22;1545;51.728;8.796;2023-07-16T07:04:40;23.50;61.70
3069;DHT22;1545;51.728;8.796;2023-07-16T07:07:06;24.10;60.10
3069;DHT22;1545;51.728;8.796;2023-07-16T07:09:32;24.60;58.90
3069;DHT22;1545;51.728;8.796;2023-07-16T07:11:57;25.20;57.00
3069;DHT22;1545;51.728;8.796;2023-07-16T07:14:23;25.60;55.80
3069;DHT22;1545;51.728;8.796;2023-07-16T07:16:48;25.80;55.80
3069;DHT22;1545;51.728;8.796;2023-07-16T07:19:14;26.10;55.30
3069;DHT22;1545;51.728;8.796;2023-07-16T07:21:39;26.70;54.10
3069;DHT22;1545;51.728;8.796;2023-07-16T07:24:05;26.50;54.10
3069;DHT22;1545;51.728;8.796;2023-07-16T07:26:30;26.00;54.70
3069;DHT22;1545;51.728;8.796;2023-07-16T07:28:56;26.80;53.70
3069;DHT22;1545;51.728;8.796;2023-07-16T07:31:21;27.00;53.20
3069;DHT22;1545;51.728;8.796;2023-07-16T07:33:47;26.50;53.50
3069;DHT22;1545;51.728;8.796;2023-07-16T07:36:12;25.50;55.00
3069;DHT22;1545;51.728;8.796;2023-07-16T07:38:38;25.30;56.00
3069;DHT22;1545;51.728;8.796;2023-07-16T07:41:05;26.40;53.80
3069;DHT22;1545;51.728;8.796;2023-07-16T07:43:31;26.90;52.40
3069;DHT22;1545;51.728;8.796;2023-07-16T07:45:56;27.00;52.10
3069;DHT22;1545;51.728;8.796;2023-07-16T07:48:22;27.20;52.70
3069;DHT22;1545;51.728;8.796;2023-07-16T07:50:47;27.40;52.00
3069;DHT22;1545;51.728;8.796;2023-07-16T07:53:13;27.00;52.80
3069;DHT22;1545;51.728;8.796;2023-07-16T07:55:40;27.30;53.20
3069;DHT22;1545;51.728;8.796;2023-07-16T07:58:07;28.60;51.00
3069;DHT22;1545;51.728;8.796;2023-07-16T08:00:32;29.80;47.70
3069;DHT22;1545;51.728;8.796;2023-07-16T08:02:58;30.20;47.10
3069;DHT22;1545;51.728;8.796;2023-07-16T08:05:23;29.80;47.50
3069;DHT22;1545;51.728;8.796;2023-07-16T08:07:49;29.80;46.90
3069;DHT22;1545;51.728;8.796;2023-07-16T08:10:14;30.30;45.90
3069;DHT22;1545;51.728;8.796;2023-07-16T08:12:40;30.70;45.50
3069;DHT22;1545;51.728;8.796;2023-07-16T08:15:06;29.90;46.70
3069;DHT22;1545;51.728;8.796;2023-07-16T08:17:33;29.00;48.00
3069;DHT22;1545;51.728;8.796;2023-07-16T08:19:58;27.50;48.70
3069;DHT22;1545;51.728;8.796;2023-07-16T08:22:24;26.70;50.60
3069;DHT22;1545;51.728;8.796;2023-07-16T08:24:51;26.00;51.90
3069;DHT22;1545;51.728;8.796;2023-07-16T08:27:16;26.30;51.50
3069;DHT22;1545;51.728;8.796;2023-07-16T08:29:42;27.10;50.00
3069;DHT22;1545;51.728;8.796;2023-07-16T08:32:08;27.90;49.50
3069;DHT22;1545;51.728;8.796;2023-07-16T08:34:33;29.20;47.30
3069;DHT22;1545;51.728;8.796;2023-07-16T08:36:59;29.80;46.00
3069;DHT22;1545;51.728;8.796;2023-07-16T08:39:24;29.60;45.90
3069;DHT22;1545;51.728;8.796;2023-07-16T08:41:50;28.60;47.10
3069;DHT22;1545;51.728;8.796;2023-07-16T08:44:16;27.90;48.10
3069;DHT22;1545;51.728;8.796;2023-07-16T08:46:42;27.50;48.80
3069;DHT22;1545;51.728;8.796;2023-07-16T08:49:07;27.70;49.10
3069;DHT22;1545;51.728;8.796;2023-07-16T08:51:34;27.50;48.40
3069;DHT22;1545;51.728;8.796;2023-07-16T08:54:00;27.70;48.50
3069;DHT22;1545;51.728;8.796;2023-07-16T08:56:26;28.30;47.40
3069;DHT22;1545;51.728;8.796;2023-07-16T08:58:55;28.30;47.20
3069;DHT22;1545;51.728;8.796;2023-07-16T09:01:24;27.20;48.80
3069;DHT22;1545;51.728;8.796;2023-07-16T09:03:49;26.30;49.80
3069;DHT22;1545;51.728;8.796;2023-07-16T09:06:15;25.80;50.60
3069;DHT22;1545;51.728;8.796;2023-07-16T09:08:41;25.00;52.10
3069;DHT22;1545;51.728;8.796;2023-07-16T09:11:11;25.10;52.40
3069;DHT22;1545;51.728;8.796;2023-07-16T09:13:43;26.40;51.30
3069;DHT22;1545;51.728;8.796;2023-07-16T09:16:09;28.00;48.50
3069;DHT22;1545;51.728;8.796;2023-07-16T09:18:34;29.30;46.80
3069;DHT22;1545;51.728;8.796;2023-07-16T09:21:00;30.60;44.90
3069;DHT22;1545;51.728;8.796;2023-07-16T09:23:33;31.50;43.20
3069;DHT22;1545;51.728;8.796;2023-07-16T09:25:59;31.70;42.40
3069;DHT22;1545;51.728;8.796;2023-07-16T09:28:24;30.90;43.70
3069;DHT22;1545;51.728;8.796;2023-07-16T09:30:50;31.20;43.10
3069;DHT22;1545;51.728;8.796;2023-07-16T09:33:21;31.00;43.70
3069;DHT22;1545;51.728;8.796;2023-07-16T09:35:48;30.40;43.70
3069;DHT22;1545;51.728;8.796;2023-07-16T09:38:14;29.90;45.30
3069;DHT22;1545;51.728;8.796;2023-07-16T09:40:40;29.40;45.80
3069;DHT22;1545;51.728;8.796;2023-07-16T09:43:10;29.90;45.50
3069;DHT22;1545;51.728;8.796;2023-07-16T09:45:36;30.00;45.10
3069;DHT22;1545;51.728;8.796;2023-07-16T09:48:02;28.80;46.40
3069;DHT22;1545;51.728;8.796;2023-07-16T09:50:29;27.80;47.70
3069;DHT22;1545;51.728;8.796;2023-07-16T09:52:56;27.70;48.20
3069;DHT22;1545;51.728;8.796;2023-07-16T09:55:24;28.30;47.80
3069;DHT22;1545;51.728;8.796;2023-07-16T09:57:55;29.40;46.80
3069;DHT22;1545;51.728;8.796;2023-07-16T10:00:22;30.30;44.90
3069;DHT22;1545;51.728;8.796;2023-07-16T10:02:50;30.70;43.80
3069;DHT22;1545;51.728;8.796;2023-07-16T10:05:27;30.30;43.80
3069;DHT22;1545;51.728;8.796;2023-07-16T10:07:58;30.20;43.80
3069;DHT22;1545;51.728;8.796;2023-07-16T10:13:12;29.70;44.60
3069;DHT22;1545;51.728;8.796;2023-07-16T10:15:39;29.20;45.50
3069;DHT22;1545;51.728;8.796;2023-07-16T10:18:05;28.30;46.00
3069;DHT22;1545;51.728;8.796;2023-07-16T10:20:35;26.80;48.80
3069;DHT22;1545;51.728;8.796;2023-07-16T10:23:15;26.50;49.20
3069;DHT22;1545;51.728;8.796;2023-07-16T10:26:03;26.30;49.90
3069;DHT22;1545;51.728;8.796;2023-07-16T10:28:31;26.00;49.60
3069;DHT22;1545;51.728;8.796;2023-07-16T10:30:58;25.40;50.70
3069;DHT22;1545;51.728;8.796;2023-07-16T10:33:23;25.40;51.70
3069;DHT22;1545;51.728;8.796;2023-07-16T10:35:49;25.40;52.10
3069;DHT22;1545;51.728;8.796;2023-07-16T10:38:14;25.30;51.80
3069;DHT22;1545;51.728;8.796;2023-07-16T10:40:44;25.20;51.90
3069;DHT22;1545;51.728;8.796;2023-07-16T10:43:11;25.20;52.50
3069;DHT22;1545;51.728;8.796;2023-07-16T10:45:37;25.50;52.40
3069;DHT22;1545;51.728;8.796;2023-07-16T10:48:03;25.60;52.10
3069;DHT22;1545;51.728;8.796;2023-07-16T10:50:28;25.50;51.50
3069;DHT22;1545;51.728;8.796;2023-07-16T10:52:57;25.30;51.60
3069;DHT22;1545;51.728;8.796;2023-07-16T10:55:23;25.30;52.10
3069;DHT22;1545;51.728;8.796;2023-07-16T10:57:49;25.40;51.80
3069;DHT22;1545;51.728;8.796;2023-07-16T11:00:16;25.60;51.70
3069;DHT22;1545;51.728;8.796;2023-07-16T11:02:43;25.80;51.10
3069;DHT22;1545;51.728;8.796;2023-07-16T11:05:14;25.90;50.70
3069;DHT22;1545;51.728;8.796;2023-07-16T11:07:44;26.00;50.60
3069;DHT22;1545;51.728;8.796;2023-07-16T11:10:10;26.00;50.50
3069;DHT22;1545;51.728;8.796;2023-07-16T11:12:35;26.10;50.70
3069;DHT22;1545;51.728;8.796;2023-07-16T11:15:01;26.00;50.70
3069;DHT22;1545;51.728;8.796;2023-07-16T11:17:27;26.10;50.10
3069;DHT22;1545;51.728;8.796;2023-07-16T11:19:54;26.00;49.90
3069;DHT22;1545;51.728;8.796;2023-07-16T11:22:26;26.00;50.90
3069;DHT22;1545;51.728;8.796;2023-07-16T11:24:53;26.20;50.70
3069;DHT22;1545;51.728;8.796;2023-07-16T11:27:21;26.20;50.50
3069;DHT22;1545;51.728;8.796;2023-07-16T11:29:48;26.30;50.60
3069;DHT22;1545;51.728;8.796;2023-07-16T11:32:31;26.40;49.80
3069;DHT22;1545;51.728;8.796;2023-07-16T11:34:57;26.30;49.50
3069;DHT22;1545;51.728;8.796;2023-07-16T11:37:28;26.50;49.40
3069;DHT22;1545;51.728;8.796;2023-07-16T11:40:10;26.30;49.50
3069;DHT22;1545;51.728;8.796;2023-07-16T11:42:38;26.30;49.60
3069;DHT22;1545;51.728;8.796;2023-07-16T11:45:05;26.10;49.40
3069;DHT22;1545;51.728;8.796;2023-07-16T11:47:31;26.00;49.90
3069;DHT22;1545;51.728;8.796;2023-07-16T11:49:56;25.70;50.20
3069;DHT22;1545;51.728;8.796;2023-07-16T11:52:27;26.10;50.40
3069;DHT22;1545;51.728;8.796;2023-07-16T11:54:54;26.30;49.80
3069;DHT22;1545;51.728;8.796;2023-07-16T11:57:19;26.30;50.50
3069;DHT22;1545;51.728;8.796;2023-07-16T11:59:45;26.50;49.50
3069;DHT22;1545;51.728;8.796;2023-07-16T12:02:11;26.80;48.70
3069;DHT22;1545;51.728;8.796;2023-07-16T12:04:37;27.20;48.50
3069;DHT22;1545;51.728;8.796;2023-07-16T12:07:03;27.40;48.10
3069;DHT22;1545;51.728;8.796;2023-07-16T12:09:28;27.60;48.10
3069;DHT22;1545;51.728;8.796;2023-07-16T12:11:54;27.80;47.40
3069;DHT22;1545;51.728;8.796;2023-07-16T12:14:20;27.50;47.70
3069;DHT22;1545;51.728;8.796;2023-07-16T12:16:45;27.30;48.00
3069;DHT22;1545;51.728;8.796;2023-07-16T12:19:11;27.10;47.80
3069;DHT22;1545;51.728;8.796;2023-07-16T12:21:36;27.20;48.10
3069;DHT22;1545;51.728;8.796;2023-07-16T12:24:02;27.30;47.80
3069;DHT22;1545;51.728;8.796;2023-07-16T12:26:28;27.60;47.90
3069;DHT22;1545;51.728;8.796;2023-07-16T12:28:54;27.80;47.20
3069;DHT22;1545;51.728;8.796;2023-07-16T12:31:19;28.10;47.10
3069;DHT22;1545;51.728;8.796;2023-07-16T12:33:48;28.20;46.20
3069;DHT22;1545;51.728;8.796;2023-07-16T12:36:14;27.90;46.70
3069;DHT22;1545;51.728;8.796;2023-07-16T12:38:40;27.70;46.90
3069;DHT22;1545;51.728;8.796;2023-07-16T12:41:06;27.70;46.80
3069;DHT22;1545;51.728;8.796;2023-07-16T12:43:32;27.90;46.70
3069;DHT22;1545;51.728;8.796;2023-07-16T12:46:00;28.10;46.60
3069;DHT22;1545;51.728;8.796;2023-07-16T12:48:26;28.10;46.50
3069;DHT22;1545;51.728;8.796;2023-07-16T12:50:52;28.00;45.90
3069;DHT22;1545;51.728;8.796;2023-07-16T12:53:17;27.80;45.80
3069;DHT22;1545;51.728;8.796;2023-07-16T12:55:43;27.50;46.20
3069;DHT22;1545;51.728;8.796;2023-07-16T12:58:08;27.50;46.90
3069;DHT22;1545;51.728;8.796;2023-07-16T13:00:34;27.30;47.40
3069;DHT22;1545;51.728;8.796;2023-07-16T13:03:00;27.50;47.20
3069;DHT22;1545;51.728;8.796;2023-07-16T13:05:25;27.60;47.20
3069;DHT22;1545;51.728;8.796;2023-07-16T13:07:51;27.60;47.00
3069;DHT22;1545;51.728;8.796;2023-07-16T13:10:17;27.80;46.70
3069;DHT22;1545;51.728;8.796;2023-07-16T13:12:42;27.70;46.20
3069;DHT22;1545;51.728;8.796;2023-07-16T13:15:08;27.70;46.70
3069;DHT22;1545;51.728;8.796;2023-07-16T13:17:34;27.70;46.40
3069;DHT22;1545;51.728;8.796;2023-07-16T13:20:00;27.20;46.40
3069;DHT22;1545;51.728;8.796;2023-07-16T13:22:25;26.90;47.10
3069;DHT22;1545;51.728;8.796;2023-07-16T13:24:51;27.00;47.20
3069;DHT22;1545;51.728;8.796;2023-07-16T13:27:21;27.00;47.10
3069;DHT22;1545;51.728;8.796;2023-07-16T13:29:47;27.50;47.20
3069;DHT22;1545;51.728;8.796;2023-07-16T13:32:12;28.10;46.70
3069;DHT22;1545;51.728;8.796;2023-07-16T13:34:38;28.20;45.90
3069;DHT22;1545;51.728;8.796;2023-07-16T13:37:03;28.10;45.80
3069;DHT22;1545;51.728;8.796;2023-07-16T13:39:29;27.80;46.70
3069;DHT22;1545;51.728;8.796;2023-07-16T13:41:54;27.70;46.20
3069;DHT22;1545;51.728;8.796;2023-07-16T13:44:20;27.30;46.90
3069;DHT22;1545;51.728;8.796;2023-07-16T13:46:45;27.30;46.90
3069;DHT22;1545;51.728;8.796;2023-07-16T13:49:11;27.30;47.20
3069;DHT22;1545;51.728;8.796;2023-07-16T13:51:37;27.40;46.70
3069;DHT22;1545;51.728;8.796;2023-07-16T13:54:03;27.60;46.40
3069;DHT22;1545;51.728;8.796;2023-07-16T13:56:28;27.60;46.00
3069;DHT22;1545;51.728;8.796;2023-07-16T13:58:54;27.50;45.90
3069;DHT22;1545;51.728;8.796;2023-07-16T14:01:19;27.60;46.50
3069;DHT22;1545;51.728;8.796;2023-07-16T14:03:45;27.80;45.90
3069;DHT22;1545;51.728;8.796;2023-07-16T14:06:10;27.90;45.80
3069;DHT22;1545;51.728;8.796;2023-07-16T14:08:36;27.80;45.60
3069;DHT22;1545;51.728;8.796;2023-07-16T14:11:02;27.60;45.40
3069;DHT22;1545;51.728;8.796;2023-07-16T14:13:28;27.40;46.30
3069;DHT22;1545;51.728;8.796;2023-07-16T14:15:54;27.00;46.60
3069;DHT22;1545;51.728;8.796;2023-07-16T14:18:19;27.10;46.90
3069;DHT22;1545;51.728;8.796;2023-07-16T14:20:45;27.20;46.70
3069;DHT22;1545;51.728;8.796;2023-07-16T14:23:10;27.20;46.60
3069;DHT22;1545;51.728;8.796;2023-07-16T14:25:36;27.20;46.90
3069;DHT22;1545;51.728;8.796;2023-07-16T14:28:02;27.20;47.00
3069;DHT22;1545;51.728;8.796;2023-07-16T14:30:27;27.10;47.50
3069;DHT22;1545;51.728;8.796;2023-07-16T14:32:53;27.00;47.80
3069;DHT22;1545;51.728;8.796;2023-07-16T14:35:18;27.00;48.20
3069;DHT22;1545;51.728;8.796;2023-07-16T14:37:44;26.80;48.40
3069;DHT22;1545;51.728;8.796;2023-07-16T14:40:10;26.80;48.70
3069;DHT22;1545;51.728;8.796;2023-07-16T14:42:35;26.60;47.60
3069;DHT22;1545;51.728;8.796;2023-07-16T14:45:01;26.70;47.60
3069;DHT22;1545;51.728;8.796;2023-07-16T14:47:27;27.00;47.80
3069;DHT22;1545;51.728;8.796;2023-07-16T14:49:52;27.30;47.60
3069;DHT22;1545;51.728;8.796;2023-07-16T14:52:19;27.40;47.50
3069;DHT22;1545;51.728;8.796;2023-07-16T14:54:44;27.30;48.00
3069;DHT22;1545;51.728;8.796;2023-07-16T14:57:10;27.40;47.70
3069;DHT22;1545;51.728;8.796;2023-07-16T14:59:35;27.40;48.00
3069;DHT22;1545;51.728;8.796;2023-07-16T15:02:02;27.40;48.00
3069;DHT22;1545;51.728;8.796;2023-07-16T15:04:28;27.50;47.80
3069;DHT22;1545;51.728;8.796;2023-07-16T15:06:54;27.30;48.20
3069;DHT22;1545;51.728;8.796;2023-07-16T15:09:19;27.40;47.80
3069;DHT22;1545;51.728;8.796;2023-07-16T15:11:45;27.40;49.00
3069;DHT22;1545;51.728;8.796;2023-07-16T15:14:10;27.80;48.90
3069;DHT22;1545;51.728;8.796;2023-07-16T15:16:37;27.80;48.10
3069;DHT22;1545;51.728;8.796;2023-07-16T15:19:02;27.60;47.80
3069;DHT22;1545;51.728;8.796;2023-07-16T15:21:28;27.20;47.80
3069;DHT22;1545;51.728;8.796;2023-07-16T15:23:53;27.10;48.40
3069;DHT22;1545;51.728;8.796;2023-07-16T15:26:19;26.90;48.70
3069;DHT22;1545;51.728;8.796;2023-07-16T15:28:44;26.90;49.40
3069;DHT22;1545;51.728;8.796;2023-07-16T15:31:10;26.80;48.90
3069;DHT22;1545;51.728;8.796;2023-07-16T15:33:37;26.70;49.50
3069;DHT22;1545;51.728;8.796;2023-07-16T15:36:03;26.50;49.40
3069;DHT22;1545;51.728;8.796;2023-07-16T15:38:29;26.40;49.90
3069;DHT22;1545;51.728;8.796;2023-07-16T15:40:55;26.60;50.00
3069;DHT22;1545;51.728;8.796;2023-07-16T15:43:20;26.80;49.80
3069;DHT22;1545;51.728;8.796;2023-07-16T15:45:46;27.10;48.90
3069;DHT22;1545;51.728;8.796;2023-07-16T15:48:11;26.90;49.00
3069;DHT22;1545;51.728;8.796;2023-07-16T15:50:38;26.70;49.20
3069;DHT22;1545;51.728;8.796;2023-07-16T15:53:04;26.50;50.30
3069;DHT22;1545;51.728;8.796;2023-07-16T15:55:29;26.10;50.70
3069;DHT22;1545;51.728;8.796;2023-07-16T15:57:57;26.00;51.30
3069;DHT22;1545;51.728;8.796;2023-07-16T16:00:22;26.50;50.30
3069;DHT22;1545;51.728;8.796;2023-07-16T16:02:48;26.90;49.40